Rechercher aéroport 
image banner adimage banner adimage banner ad
image banner ad

KFUL - Fullerton Muni

Situé à Fullerton, United States

ICAO - FUL, IATA - FUL

Données fournies par Airmate  

Information générale

Coordonnées: N33°52'19" W117°58'47"
Élévation : 96 feet MSL.
Variation magnétique : 14° East
Voir autres Aéroports à California

Données opérationnelles

Special qualification required
Heure actuelle UTC:
Heure actuelle locale:
Météo
METAR: KFUL 251153Z AUTO 00000KT 10SM CLR 20/17 A2994 RMK AO2 SLP138 T02000167 10206 20194 58006
Voir NOTAMs / SUP AIP / TFR affectant cet aéroport [VIEW]
Fréquences de communication: [VIEW]

Pistes:

Identifiant RWYQFULongueur (ft)Largeur (ft)SurfaceLDA (ft)
0677°312175ASPH
24257°312175ASPH

Coordonnées de l'aéroport

Adresse: Fullerton United States

Autres services d'aviation

Écoles de pilotage

Air Combat Usa

Air Combat Usa

Afi Flight Training Center

Afi Flight Training Center
billjr@flyafi.com+1(714)870-9931

Fun Outside Aviation Academy

Fun Outside Aviation Academy
garrett@funoutside.net+1(714)386-9933

Skythrills!

Skythrills!
skythrills@gmail.com+1(714)402-4888

Vue satellite de KFUL